This is the latest recevied weather packets stored in our database for station/object K4MUW-4. If no packets are shown the sender has not sent any weather packets the latest 10 day(s).
| Time | Temp. | Humidity | Pressure | Rain* | Wind** | Luminosity | Snow |
|---|---|---|---|---|---|---|---|
| 1777841373 | 20° C | 31% | 1016 hPa | 0 mm | 1.34 m/s, 207° | - | - |
| 1777841072 | 20° C | 31% | 1016 hPa | 0 mm | 0 m/s | - | - |
| 1777840772 | 20° C | 31% | 1016 hPa | 0 mm | 2.24 m/s, 187° | - | - |
| 1777840461 | 20° C | 31% | 1016 hPa | 0 mm | 1.34 m/s, 292° | - | - |
| 1777840161 | 20° C | 30% | 1016 hPa | 0 mm | 1.34 m/s, 308° | - | - |
| 1777839861 | 20° C | 32% | 1016 hPa | 0 mm | 1.34 m/s, 304° | - | - |
| 1777839560 | 20° C | 29% | 1016 hPa | 0 mm | 1.79 m/s, 302° | - | - |
| 1777839255 | 20.56° C | 28% | 1016 hPa | 0 mm | 1.34 m/s, 312° | - | - |
| 1777838955 | 20.56° C | 30% | 1016 hPa | 0 mm | 1.79 m/s, 225° | - | - |
| 1777838655 | 20° C | 31% | 1016 hPa | 0 mm | 1.79 m/s, 187° | - | - |
| 1777838354 | 20° C | 31% | 1016 hPa | 0 mm | 1.34 m/s, 254° | - | - |
| 1777838054 | 20° C | 30% | 1016 hPa | 0 mm | 2.24 m/s, 255° | - | - |
| 1777837754 | 20° C | 30% | 1016 hPa | 0 mm | 0 m/s | - | - |
| 1777837453 | 20° C | 29% | 1016 hPa | 0 mm | 1.34 m/s, 294° | - | - |
| 1777837153 | 19.44° C | 30% | 1016 hPa | 0 mm | 1.34 m/s, 199° | - | - |
| 1777836852 | 19.44° C | 29% | 1016 hPa | 0 mm | 1.34 m/s, 298° | - | - |
| 1777836552 | 19.44° C | 28% | 1017 hPa | 0 mm | 1.34 m/s, 242° | - | - |
| 1777836252 | 19.44° C | 26% | 1017 hPa | 0 mm | 1.79 m/s, 276° | - | - |
| 1777835951 | 19.44° C | 27% | 1017 hPa | 0 mm | 0 m/s | - | - |
| 1777835651 | 19.44° C | 28% | 1017 hPa | 0 mm | 1.79 m/s, 183° | - | - |
| 1777835351 | 19.44° C | 28% | 1017 hPa | 0 mm | 2.24 m/s, 186° | - | - |
| 1777835050 | 19.44° C | 28% | 1017 hPa | 0 mm | 1.79 m/s, 310° | - | - |
| 1777834750 | 19.44° C | 29% | 1017 hPa | 0 mm | 0 m/s | - | - |
| 1777834450 | 19.44° C | 31% | 1017 hPa | 0 mm | 1.34 m/s, 208° | - | - |
| 1777834149 | 19.44° C | 31% | 1017 hPa | 0 mm | 1.79 m/s, 301° | - | - |
* Rain latest hour (hover to see other rain measurements)
** Current wind speed in m/s (hover to see current wind gust speed)